• Join FlightAware (Why Join?)
  • Login
  • US Flag GB Flag 
13:45 EDT


 

Airport Tracker/Info


-or-


 

Live Flight TrackerFlight Track Log ✈ EJM949 ✈ 16-Aug-2013 ✈ KSFO - KASE

Flight Track Log - Related Links

Times and Time Zones

All times are in EDT time to prevent confusion due to time zone crossing. See the EJM949 flight status page for this flight to view local times or setup timezone preferences in your user account.

Time Position Orientation Groundspeed Altitude Reporting Facility
EDT Latitude Longitude Course Direction KTS MPH feet Rate Location/Type
17:23 37.6333 -122.3500 38° Northeast 192 221 1,800  Level Northern Cal TRACON
17:24 37.6833 -122.3000 38° Northeast 210 242 6,300 3,780 Climbing Northern Cal TRACON
17:25 37.7167 -122.2500 50° Northeast 227 261 9,400 2,700 Climbing Northern Cal TRACON
17:26 37.7833 -122.1667 45° Northeast 338 389 11,700 2,820 Climbing Northern Cal TRACON
17:28 37.8642 -121.8917 70° East 397 457 18,500 2,940 Climbing Oakland Center
17:29 37.8994 -121.7494 73° East 416 479 21,200 2,580 Climbing Oakland Center
17:30 37.9356 -121.5992 73° East 439 505 23,900 2,760 Climbing Oakland Center
17:31 37.9592 -121.4331 80° East 458 527 27,000 2,640 Climbing Oakland Center
17:32 37.9842 -121.2686 79° East 472 543 29,400 2,400 Climbing Oakland Center
17:33 38.0100 -121.0994 79° East 485 558 32,000 2,820 Climbing Oakland Center
17:34 38.0411 -120.8947 79° East 495 570 35,200 2,460 Climbing Oakland Center
17:35 38.0664 -120.7244 79° East 496 571 37,200 1,920 Climbing Oakland Center
17:36 38.0906 -120.5539 80° East 495 570 39,200 1,920 Climbing Oakland Center
17:37 38.1156 -120.3850 79° East 493 567 41,200 1,860 Climbing Oakland Center
17:38 38.1403 -120.2161 79° East 489 563 43,100 1,620 Climbing Oakland Center
17:39 38.1633 -120.0528 80° East 479 551 44,600 900 Climbing Oakland Center
17:40 38.1911 -119.8525 80° East 480 552 45,000 180 Climbing Oakland Center
17:41 38.2161 -119.6794 80° East 493 567 45,000  Level Oakland Center
17:42 38.2408 -119.5028 80° East 505 581 45,000  Level Oakland Center
17:43 38.2644 -119.3164 81° East 501 577 45,000  Level Oakland Center
17:44 38.2769 -119.1442 85° East 493 567 45,000  Level Oakland Center
17:45 38.2839 -118.9700 87° East 495 570 45,000  Level Oakland Center
17:46 38.2903 -118.7939 87° East 499 574 45,000  Level Oakland Center
17:47 38.2967 -118.6169 87° East 502 578 45,000  Level Oakland Center
17:48 38.3033 -118.4389 87° East 504 580 45,000  Level Oakland Center
17:49 38.3103 -118.2228 88° East 512 589 45,000  Level Oakland Center
17:50 38.3178 -118.0503 87° East 501 577 45,000  Level Oakland Center
17:51 38.3222 -117.8747 88° East 495 570 45,000  Level Oakland Center
17:53 38.3261 -117.6944 88° East 505 581 45,000  Level Oakland Center
17:54 38.3314 -117.5142 88° East 507 583 45,000  Level Oakland Center
17:55 38.3481 -117.3442 83° East 500 575 45,000  Level Oakland Center
17:56 38.3711 -117.1564 81° East 504 580 45,000  Level Oakland Center
17:57 38.3994 -116.9047 82° East 507 583 45,000  Level Salt Lake Center
17:58 38.4122 -116.7983 81° East 504 580 45,000  Level Oakland Center
17:59 38.4372 -116.5853 81° East 504 580 45,000  Level Oakland Center
18:00 38.4572 -116.4106 82° East 500 575 45,000  Level Oakland Center
18:01 38.4767 -116.2361 82° East 496 571 45,000  Level Oakland Center
18:02 38.4953 -116.0606 82° East 499 574 45,000  Level Oakland Center
18:03 38.5217 -115.8125 82° East 506 582 45,000  Level Salt Lake Center
18:04 38.5400 -115.6381 82° East 498 573 45,000  Level Salt Lake Center
18:05 38.5594 -115.4617 82° East 500 575 45,000  Level Salt Lake Center
18:06 38.5767 -115.2992 82° East 501 577 45,000  Level Salt Lake Center
18:07 38.5942 -115.1239 83° East 499 574 45,000  Level Salt Lake Center
18:08 38.6150 -114.9139 83° East 498 573 45,000  Level Salt Lake Center
18:09 38.6317 -114.7389 83° East 495 570 45,000  Level Salt Lake Center
18:10 38.6494 -114.5633 83° East 497 572 45,000  Level Salt Lake Center
18:11 38.6669 -114.3883 83° East 496 571 45,000  Level Salt Lake Center
18:12 38.6822 -114.2128 84° East 496 571 45,000  Level Salt Lake Center
18:13 38.6994 -114.0356 83° East 500 575 45,000  Level Salt Lake Center
18:14 38.7153 -113.8611 83° East 495 570 45,000  Level Salt Lake Center
18:15 38.7347 -113.6508 83° East 496 571 45,000  Level Salt Lake Center
18:17 38.7489 -113.4742 84° East 498 573 45,000  Level Salt Lake Center
18:18 38.7642 -113.2992 84° East 495 570 45,000  Level Salt Lake Center
18:19 38.7803 -113.1244 83° East 493 567 45,000  Level Salt Lake Center
18:20 38.7936 -112.9464 84° East 500 575 45,000  Level Salt Lake Center
18:21 38.8081 -112.7711 84° East 498 573 45,000  Level Salt Lake Center
18:22 38.8222 -112.5975 84° East 490 564 45,000  Level Salt Lake Center
18:23 38.8364 -112.4208 84° East 496 571 45,000  Level Salt Lake Center
18:24 38.8525 -112.2106 84° East 493 567 45,000  Level Salt Lake Center
18:25 38.8647 -112.0347 85° East 494 568 45,000  Level Salt Lake Center
18:26 38.8783 -111.8597 84° East 494 568 45,000  Level Salt Lake Center
18:27 38.8903 -111.6839 85° East 495 570 45,000  Level Salt Lake Center
18:28 38.9031 -111.5097 85° East 491 565 45,000  Level Salt Lake Center
18:29 38.9150 -111.3347 85° East 492 566 45,000  Level Salt Lake Center
18:30 38.9283 -111.1603 84° East 492 566 45,000  Level Salt Lake Center
18:31 38.9414 -110.9481 85° East 496 571 45,000  Level Salt Lake Center
18:32 38.9522 -110.7661 86° East 495 570 45,000  Level Salt Lake Center
18:33 38.9633 -110.6006 85° East 491 565 45,000  Level Salt Lake Center
18:34 38.9747 -110.4050 86° East 492 566 45,000  Level Salt Lake Center
18:35 38.9847 -110.2378 86° East 492 566 45,000 -720 Level Salt Lake Center
18:36 38.9947 -110.0697 86° East 494 568 43,600 -1,620 Descending Salt Lake Center
18:37 39.0042 -109.8742 86° East 493 567 41,800 -1,740 Descending Salt Lake Center
18:38 39.0094 -109.7578 87° East 495 570 40,800 -1,620 Descending Denver Center
18:39 39.0189 -109.5839 86° East 508 585 39,200 -1,680 Descending Denver Center
18:40 39.0297 -109.3808 86° East 510 587 37,400 -1,620 Descending Denver Center
18:41 39.0375 -109.2081 87° East 508 585 36,000 -720 Descending Denver Center
18:42 39.0464 -109.0342 86° East 510 587 36,000 -960 Level Denver Center
18:43 39.0564 -108.8294 86° East 514 592 34,100 -1,800 Descending Denver Center
18:44 39.0633 -108.6569 87° East 509 586 32,400 -1,800 Descending Denver Center
18:45 39.0706 -108.4533 87° East 512 589 30,400 -1,800 Descending Denver Center
18:46 39.0772 -108.2789 87° East 513 590 28,700 -1,740 Descending Denver Center
18:47 39.0811 -108.0878 88° East 484 557 26,900 -1,680 Descending Denver Center
18:48 39.0861 -107.9286 88° East 469 540 25,300 -1,680 Descending Denver Center
18:49 39.0906 -107.7483 88° East 455 524 23,500 -1,620 Descending Denver Center
18:50 39.0947 -107.5983 88° East 446 513 22,000 -1,560 Descending Denver Center
18:51 39.0989 -107.4297 88° East 429 494 20,400 -1,020 Descending Denver Center
18:52 39.1167 -107.2989 80° East 395 455 20,000 -780 Descending Denver Center
18:53 39.1864 -107.2047 46° Northeast 327 376 18,900 -1,380 Descending Denver Center
18:54 39.2497 -107.1703 23° Northeast 303 349 17,200 -1,680 Descending Denver Center
18:55 39.3356 -107.1236 23° Northeast 283 326 15,500 -1,620 Descending Denver Center
18:56 39.3897 -107.0789 33° Northeast 247 284 13,900 -1,320 Descending Denver Center
18:57 39.4133 -107.0156 64° Northeast 206 237 12,800 -1,620 Descending Denver Center
18:58 39.3769 -106.9792 142° Southeast 178 205 10,600 -1,620 Descending Denver Center
18:59 39.3389 -106.9494 149° Southeast 168 193 9,500 -1,020 Descending Denver Center
19:00 39.3006 -106.9214 150° Southeast 163 188 8,600 -660 Descending Denver Center
19:01 39.2614 -106.8881 147° Southeast 169 194 8,200 -420 Descending Denver Center
19:03 39.2167 -106.8667 176° South  Level FlightAware Approximate